Weather reports worldwide

Advertisment
Paganella, Italy (16022): temperature & dewpoint: 17.04.2018 01:00:00 - 23.04.2018 01:00:00 (CEST)Paganella, Italy (16022): wind speed: 17.04.2018 01:00:00 - 23.04.2018 01:00:00 (CEST)Paganella, Italy (16022): wind direction: 17.04.2018 01:00:00 - 23.04.2018 01:00:00 (CEST)Paganella, Italy (16022): visibility: 17.04.2018 01:00:00 - 23.04.2018 01:00:00 (CEST)Paganella, Italy (16022): sunshine duration: 17.04.2018 01:00:00 - 23.04.2018 01:00:00 (CEST)
Date & Time tt [°C] td [°C] ff [km/h] ff [kn] dd vv [km] sd [min]
23.04.2018 01:00:00 7,6 3,7 0 0 N 30 -
23.04.2018 00:00:00 7,6 3,3 9 5 SW 30 -
22.04.2018 23:00:00 7,4 2,7 13 7 SW 30 -
22.04.2018 22:00:00 7,2 4,2 15 8 SW 30 -
22.04.2018 21:00:00 7,0 4,0 15 8 WSW 30 0
22.04.2018 20:00:00 7,8 4,0 21 11 WSW 30 48
22.04.2018 19:00:00 8,4 3,2 16 9 WSW 40 60
22.04.2018 18:00:00 9,4 2,7 15 8 SW 70 60
22.04.2018 17:00:00 10,0 0,1 13 7 SW 50 60
22.04.2018 16:00:00 10,0 0,1 15 8 SSW 60 60
22.04.2018 15:00:00 10,2 1,0 9 5 WSW 50 60
22.04.2018 14:00:00 10,0 2,6 5 3 SW 50 60
22.04.2018 13:00:00 9,8 3,5 11 6 SSW 70 60
22.04.2018 12:00:00 9,4 3,6 4 2 N 70 60
22.04.2018 11:00:00 9,4 3,2 9 5 N 40 60
22.04.2018 10:00:00 9,7 2,3 8 4 N 40 60
22.04.2018 09:00:00 9,2 2,7 5 3 N 30 60
22.04.2018 08:00:00 8,4 3,5 9 5 N 30 60
22.04.2018 07:00:00 7,2 2,1 8 4 N 30 18
22.04.2018 06:00:00 6,6 1,7 9 5 N 30 -
22.04.2018 05:00:00 6,0 3,8 8 4 SSW 30 -
22.04.2018 04:00:00 6,0 4,2 15 8 SSW 30 -
22.04.2018 03:00:00 6,2 4,4 18 10 SSW 15 -
22.04.2018 02:00:00 6,2 4,4 18 10 SSW 15 -
22.04.2018 01:00:00 6,2 3,9 15 8 SSW 40 -
22.04.2018 00:00:00 6,2 3,4 18 10 SSW 40 -
21.04.2018 23:00:00 7,4 1,7 11 6 SSW 50 -
21.04.2018 22:00:00 8,4 0,4 11 6 SW 50 -
21.04.2018 21:00:00 10,2 -1,2 8 4 SSW 50 0
21.04.2018 20:00:00 10,8 -0,7 5 3 SSW 70 42
21.04.2018 19:00:00 11,0 -0,2 5 3 SW 70 60
21.04.2018 18:00:00 11,0 0,1 5 3 SW 70 60
21.04.2018 17:00:00 11,0 -1,1 8 4 WSW 70 60
21.04.2018 16:00:00 10,2 0,2 9 5 SW 70 60
21.04.2018 15:00:00 10,0 0,3 5 3 SSW 70 60
21.04.2018 14:00:00 10,0 0,1 11 6 SW 70 60
21.04.2018 13:00:00 9,4 0,0 11 6 SSW 70 60
21.04.2018 12:00:00 8,2 -1,6 18 10 SSW 70 60
21.04.2018 11:00:00 7,2 -2,5 15 8 SSW 70 60
21.04.2018 10:00:00 7,0 -1,4 15 8 SSW 60 60
21.04.2018 09:00:00 7,0 -1,4 16 9 SSW 60 60
21.04.2018 08:00:00 6,4 -1,5 18 10 SSW 60 60
21.04.2018 07:00:00 6,0 -2,3 22 12 SSW 50 6
21.04.2018 06:00:00 6,0 -2,3 22 12 SSW 50 -
21.04.2018 05:00:00 6,0 -1,9 15 8 S 50 -
21.04.2018 04:00:00 6,0 -4,2 11 6 S 50 -
21.04.2018 03:00:00 6,4 -3,8 11 6 S 50 -
21.04.2018 02:00:00 7,0 -3,5 13 7 S 50 -
21.04.2018 01:00:00 7,8 -4,6 0 0 N 50 -
21.04.2018 00:00:00 9,0 -4,5 8 4 N 50 -
20.04.2018 23:00:00 9,2 -4,7 8 4 N 50 -
20.04.2018 22:00:00 9,6 -5,1 5 3 N 50 -
20.04.2018 21:00:00 9,6 -4,7 5 3 N 50 0
20.04.2018 20:00:00 10,0 -4,0 0 0 N 80 60
20.04.2018 19:00:00 10,0 -4,0 4 2 N 80 60
20.04.2018 18:00:00 10,0 -4,0 4 2 N 80 60
20.04.2018 17:00:00 10,0 -4,7 4 2 N 80 60
20.04.2018 16:00:00 9,8 -4,5 4 2 N 70 60
20.04.2018 15:00:00 9,6 -4,0 8 4 S 70 60
20.04.2018 14:00:00 9,8 -1,6 4 2 N 70 60
20.04.2018 13:00:00 9,4 -3,5 4 2 N 70 60
20.04.2018 12:00:00 9,2 0,6 5 3 N 70 60
20.04.2018 11:00:00 8,8 1,0 0 0 N 70 60
20.04.2018 10:00:00 8,6 1,3 0 0 N 70 60
20.04.2018 09:00:00 8,8 0,3 0 0 N 70 60
20.04.2018 08:00:00 7,4 -1,1 5 3 N 50 30
20.04.2018 07:00:00 6,4 -1,7 0 0 N 50 0
20.04.2018 06:00:00 6,4 -1,5 5 3 N 50 -
20.04.2018 05:00:00 6,0 0,4 8 4 N 50 -
20.04.2018 04:00:00 6,2 0,7 8 4 N 50 -
20.04.2018 03:00:00 7,0 0,9 8 4 N 50 -
20.04.2018 02:00:00 7,0 0,9 11 6 N 50 -
20.04.2018 01:00:00 6,8 0,7 8 4 N 50 -
20.04.2018 00:00:00 7,0 0,7 8 4 N 50 -
19.04.2018 23:00:00 6,0 0,4 5 3 - 50 -
19.04.2018 22:00:00 6,2 1,7 18 10 S 50 -
19.04.2018 21:00:00 6,8 1,7 18 10 S 60 0
19.04.2018 20:00:00 7,6 1,0 15 8 SSW 70 48
19.04.2018 19:00:00 8,6 -1,2 15 8 S 70 60
19.04.2018 18:00:00 9,0 -1,7 5 3 S 70 60
19.04.2018 17:00:00 9,0 -2,9 11 6 S 70 60
19.04.2018 16:00:00 8,8 -4,7 8 4 S 70 60
19.04.2018 15:00:00 8,4 -5,1 9 5 N 80 60
19.04.2018 14:00:00 8,0 -5,4 8 4 N 80 60
19.04.2018 13:00:00 7,8 -5,0 9 5 N 80 60
19.04.2018 12:00:00 7,0 -5,7 5 3 N 80 60
19.04.2018 11:00:00 6,6 -6,0 8 4 N 80 60
19.04.2018 10:00:00 6,2 -6,4 11 6 N 80 60
19.04.2018 09:00:00 6,4 -6,9 9 5 N 70 60
19.04.2018 08:00:00 6,2 -6,7 11 6 N 70 30
19.04.2018 07:00:00 5,6 -5,7 11 6 N 70 0
19.04.2018 06:00:00 5,3 -5,7 11 6 N 50 -
19.04.2018 05:00:00 5,6 -4,0 11 6 N 40 -
19.04.2018 04:00:00 6,0 -4,5 13 7 N 40 -
19.04.2018 03:00:00 6,0 -4,2 9 5 N 40 -
19.04.2018 02:00:00 6,0 -3,6 5 3 N 40 -
19.04.2018 01:00:00 6,0 -2,3 8 4 N 40 -
19.04.2018 00:00:00 6,0 -2,3 8 4 N 40 -
18.04.2018 23:00:00 6,4 -1,3 5 3 N 40 -
18.04.2018 22:00:00 6,2 -1,0 5 3 N 40 -
18.04.2018 21:00:00 6,8 -6,9 8 4 N 50 -
18.04.2018 20:00:00 8,0 -9,9 8 4 N 70 42
18.04.2018 19:00:00 8,2 -8,3 9 5 N 50 60
18.04.2018 18:00:00 8,0 -10,8 9 5 N 70 60
18.04.2018 17:00:00 8,0 -11,4 8 4 N 70 60
18.04.2018 16:00:00 8,0 -11,3 9 5 N 80 60
18.04.2018 15:00:00 7,4 -11,3 5 3 N 80 60
18.04.2018 14:00:00 7,2 -12,6 9 5 N 80 60
18.04.2018 13:00:00 6,2 -12,4 9 5 N 80 60
18.04.2018 12:00:00 5,4 -10,4 8 4 N 80 60
18.04.2018 11:00:00 4,8 -9,7 13 7 N 80 60
18.04.2018 10:00:00 4,0 -8,1 15 8 N 80 60
18.04.2018 09:00:00 3,2 -6,2 15 8 N 70 60
18.04.2018 08:00:00 3,0 -4,7 18 10 N 70 60
18.04.2018 07:00:00 2,8 -4,4 34 18 N 70 12
18.04.2018 06:00:00 2,8 -4,6 34 18 N 70 -
18.04.2018 05:00:00 3,0 -3,6 24 13 N 50 -
18.04.2018 04:00:00 3,0 -3,3 22 12 N 50 -
18.04.2018 03:00:00 3,0 -4,2 24 13 N 50 -
18.04.2018 02:00:00 3,2 -4,3 21 11 N 50 -
18.04.2018 01:00:00 3,4 -4,3 16 9 N 50 -
18.04.2018 00:00:00 3,6 -4,6 15 8 N 50 -
17.04.2018 23:00:00 3,8 -5,1 18 10 N 50 -
17.04.2018 22:00:00 4,0 -5,2 15 8 N 50 -
17.04.2018 21:00:00 5,0 -4,8 16 9 N 50 -
17.04.2018 20:00:00 5,4 -5,0 16 9 N 50 42
17.04.2018 19:00:00 6,0 -3,6 15 8 N 60 60
17.04.2018 18:00:00 6,2 -2,7 15 8 N 60 60
17.04.2018 17:00:00 6,2 -2,9 11 6 N 60 54
17.04.2018 16:00:00 6,2 -1,9 13 7 N 70 60
17.04.2018 15:00:00 5,6 -2,2 15 8 N 60 54
17.04.2018 14:00:00 5,0 -1,5 15 8 N 70 60
17.04.2018 13:00:00 4,8 -1,2 22 12 N 70 60
17.04.2018 12:00:00 4,0 -2,0 22 12 N 80 60
17.04.2018 11:00:00 3,6 -2,4 18 10 NNW 80 60
17.04.2018 10:00:00 2,8 -1,2 48 26 NW 70 60
17.04.2018 09:00:00 2,6 -1,0 26 14 N 70 60
17.04.2018 08:00:00 2,0 -1,3 26 14 N 70 24
17.04.2018 07:00:00 1,7 -1,2 28 15 N 70 0
17.04.2018 06:00:00 1,9 -1,0 31 17 N 60 -
17.04.2018 05:00:00 2,0 -1,8 26 14 N 60 -
17.04.2018 04:00:00 2,3 -1,0 29 16 N 60 -
17.04.2018 03:00:00 2,3 -1,1 24 13 N 40 -
17.04.2018 02:00:00 2,5 -0,9 29 16 NNE 40 -
17.04.2018 01:00:00 2,8 -0,5 28 15 NNE 40 -

tt = temperature
td = dewpoint
ff = wind speed
dd = wind direction
vv = visibility
sd = sunshine duration

Next stations